Time;durP1;ratioP1;P1;durP2;ratioP2;P2;SDS_P1;SDS_P2;PMS_P1;PMS_P2;Temp;Humidity;BMP_temperature;BMP_pressure;BME280_temperature;BME280_humidity;BME280_pressure;Samples;Min_cycle;Max_cycle;Signal;HPM_P1;HPM_P2
2022/01/24 00:01:16;;;;;;;16.17;10.98;;;;;;;4.30;67.64;101322.06;4999304;28;20045;-72
2022/01/24 00:03:41;;;;;;;15.15;10.90;;;;;;;4.31;67.74;101322.97;5000208;28;20049;-74
2022/01/24 00:06:10;;;;;;;17.52;9.55;;;;;;;4.30;67.93;101318.59;4997548;28;20056;-72
2022/01/24 00:08:35;;;;;;;16.38;10.73;;;;;;;4.24;67.68;101301.19;5009993;28;20427;-72
2022/01/24 00:11:06;;;;;;;14.75;10.05;;;;;;;4.19;68.08;101305.53;5021824;28;20042;-72
2022/01/24 00:16:23;;;;;;;12.35;9.23;;;;;;;4.18;67.86;101308.13;5008146;28;20403;-71
2022/01/24 00:26:54;;;;;;;15.02;11.02;;;;;;;4.03;68.79;101307.22;5008826;28;20084;-71
2022/01/24 00:29:22;;;;;;;15.68;10.57;;;;;;;4.05;68.46;101302.88;5009006;28;20446;-71
2022/01/24 00:31:49;;;;;;;13.25;10.48;;;;;;;4.05;68.15;101305.50;5008459;28;20115;-71
2022/01/24 00:34:16;;;;;;;13.65;10.23;;;;;;;4.07;68.76;101301.16;5007959;28;20033;-71
2022/01/24 00:36:42;;;;;;;15.35;11.52;;;;;;;4.06;68.58;101298.53;5005601;28;20046;-71
2022/01/24 00:39:08;;;;;;;14.25;10.48;;;;;;;4.01;69.01;101297.66;5008729;28;20030;-71
2022/01/24 00:41:45;;;;;;;14.77;9.38;;;;;;;4.02;68.57;101296.81;5008864;28;20533;-71
2022/01/24 00:46:59;;;;;;;13.77;9.70;;;;;;;3.88;69.33;101292.41;5008808;28;20044;-71
2022/01/24 00:53:00;;;;;;;14.40;9.95;;;;;;;3.93;69.30;101289.81;5009034;28;20065;-71
2022/01/24 00:55:02;;;;;;;12.45;8.98;;;;;;;3.96;69.25;101287.19;5007181;28;20064;-71
2022/01/24 00:57:27;;;;;;;16.05;10.73;;;;;;;3.91;69.15;101298.50;5008475;28;20072;-72
2022/01/24 00:59:53;;;;;;;15.02;9.80;;;;;;;3.81;69.36;101292.38;5009078;28;20081;-72
2022/01/24 01:02:19;;;;;;;14.05;9.27;;;;;;;3.79;69.33;101295.00;5008948;28;20029;-71
2022/01/24 01:07:36;;;;;;;13.27;9.23;;;;;;;3.73;69.47;101291.50;5008562;28;20077;-72
2022/01/24 01:18:17;;;;;;;13.13;9.70;;;;;;;3.68;70.30;101290.63;5009225;28;20040;-72
2022/01/24 01:23:30;;;;;;;13.15;8.63;;;;;;;3.62;70.08;101286.28;5011570;28;20041;-72
2022/01/24 01:25:58;;;;;;;12.43;8.80;;;;;;;3.60;70.22;101277.56;5011772;28;20816;-72
2022/01/24 01:28:25;;;;;;;12.85;8.43;;;;;;;3.56;70.55;101281.88;5011168;28;20113;-72
2022/01/24 01:30:54;;;;;;;16.92;10.27;;;;;;;3.47;70.88;101274.06;5012000;28;20038;-72
2022/01/24 01:36:13;;;;;;;15.40;9.63;;;;;;;3.25;71.69;101269.59;5010938;28;20672;-72
2022/01/24 01:55:39;;;;;;;17.65;12.40;;;;;;;2.47;74.61;101275.19;4976563;28;20034;-71
2022/01/24 01:58:19;;;;;;;14.90;10.40;;;;;;;2.35;75.30;101270.75;5010880;28;20034;-72
2022/01/24 02:00:51;;;;;;;16.20;11.35;;;;;;;2.25;75.30;101266.34;4987493;28;20034;-71
2022/01/24 02:03:17;;;;;;;16.75;11.60;;;;;;;2.12;75.58;101263.63;5007825;28;20038;-73
2022/01/24 02:05:42;;;;;;;15.55;10.50;;;;;;;2.06;75.69;101263.53;5008997;28;20058;-71
2022/01/24 02:08:08;;;;;;;15.82;11.55;;;;;;;2.01;76.32;101267.84;5011281;28;20141;-72
2022/01/24 02:10:36;;;;;;;15.13;10.38;;;;;;;2.00;75.96;101270.44;5011177;28;20033;-73
2022/01/24 02:13:02;;;;;;;12.77;9.57;;;;;;;1.97;76.09;101270.38;5011010;28;20137;-71
2022/01/24 02:15:53;;;;;;;17.23;11.50;;;;;;;1.95;75.85;101272.13;5010854;28;20041;-72
2022/01/24 02:21:23;;;;;;;16.77;11.63;;;;;;;1.76;76.66;101271.06;5010630;28;20034;-72
2022/01/24 02:23:49;;;;;;;18.40;12.10;;;;;;;1.68;76.73;101269.25;5008949;28;20041;-70
2022/01/24 02:26:20;;;;;;;18.98;11.75;;;;;;;1.67;76.74;101266.63;5008098;28;20610;-70
2022/01/24 02:34:00;;;;;;;17.90;10.70;;;;;;;1.33;77.49;101274.03;5009917;28;20041;-72
2022/01/24 02:36:26;;;;;;;12.80;9.45;;;;;;;1.23;78.64;101269.56;5010166;28;20450;-72
2022/01/24 02:49:29;;;;;;;16.17;10.35;;;;;;;1.00;78.30;101270.13;5011585;28;20026;-71
2022/01/24 02:52:08;;;;;;;13.73;8.93;;;;;;;0.94;79.32;101276.97;5011038;28;20495;-72
2022/01/24 02:54:35;;;;;;;14.38;9.02;;;;;;;0.94;79.40;101276.97;5009920;28;20121;-72
2022/01/24 02:57:03;;;;;;;13.02;8.73;;;;;;;0.93;78.98;101276.09;5010799;28;20492;-72
2022/01/24 02:59:28;;;;;;;15.55;9.27;;;;;;;0.95;78.70;101282.16;5010336;28;20085;-71
2022/01/24 03:01:54;;;;;;;11.50;8.13;;;;;;;0.91;78.84;101277.81;5007947;28;20042;-72
2022/01/24 03:04:19;;;;;;;13.00;8.45;;;;;;;0.87;78.76;101276.00;4991717;28;20205;-72
2022/01/24 03:06:45;;;;;;;14.88;8.48;;;;;;;0.82;78.59;101272.47;4992576;28;20557;-71
2022/01/24 03:09:12;;;;;;;17.67;9.50;;;;;;;0.78;78.95;101275.88;5010213;28;20480;-71
2022/01/24 03:14:19;;;;;;;15.05;9.68;;;;;;;0.51;79.81;101286.69;4992662;28;20046;-71
2022/01/24 03:16:45;;;;;;;15.10;9.52;;;;;;;0.46;80.19;101288.34;5009612;28;20109;-71
2022/01/24 03:19:11;;;;;;;16.25;10.18;;;;;;;0.41;80.29;101276.16;5008892;28;20368;-71
2022/01/24 03:21:36;;;;;;;19.00;11.55;;;;;;;0.36;80.26;101275.22;5009004;28;20470;-71
2022/01/24 03:24:02;;;;;;;18.20;10.38;;;;;;;0.36;80.89;101275.22;5007539;28;20069;-71
2022/01/24 03:26:27;;;;;;;14.65;9.85;;;;;;;0.39;79.86;101274.38;5008490;28;20109;-73
2022/01/24 03:28:52;;;;;;;15.35;10.20;;;;;;;0.39;79.91;101264.00;5009270;28;20065;-73
2022/01/24 03:31:18;;;;;;;13.68;8.15;;;;;;;0.37;80.06;101269.19;5009544;28;20034;-71
2022/01/24 03:33:43;;;;;;;19.48;11.60;;;;;;;0.29;80.24;101268.19;5009966;28;20495;-72
2022/01/24 03:36:09;;;;;;;18.88;11.27;;;;;;;0.28;80.37;101263.84;5008925;28;20063;-71
2022/01/24 03:38:34;;;;;;;21.05;11.80;;;;;;;0.28;79.90;101263.84;5009068;28;20042;-71
2022/01/24 03:41:00;;;;;;;17.75;10.32;;;;;;;0.26;80.69;101256.91;5011533;28;20037;-73
2022/01/24 03:43:25;;;;;;;14.95;9.45;;;;;;;0.25;80.83;101249.94;5008459;28;20034;-72
2022/01/24 03:48:55;;;;;;;15.27;9.68;;;;;;;0.20;79.96;101255.09;4997112;28;20064;-72
2022/01/24 03:51:23;;;;;;;16.33;10.30;;;;;;;0.17;81.03;101253.31;5009438;28;20042;-73
2022/01/24 03:53:49;;;;;;;18.38;11.65;;;;;;;0.11;80.64;101260.97;5009193;28;20033;-72
2022/01/24 03:56:16;;;;;;;17.15;10.32;;;;;;;0.07;80.56;101253.97;5007455;28;20121;-73
2022/01/24 03:58:43;;;;;;;15.73;9.13;;;;;;;0.06;80.84;101261.75;5009723;28;20038;-72
2022/01/24 04:01:09;;;;;;;14.73;9.25;;;;;;;0.04;80.49;101253.94;5009316;28;20120;-72
2022/01/24 04:03:38;;;;;;;13.32;9.10;;;;;;;0.03;80.89;101246.16;5010424;28;20125;-73
2022/01/24 04:06:05;;;;;;;18.50;10.75;;;;;;;-0.01;80.91;101247.78;5008640;28;20121;-72
2022/01/24 04:08:31;;;;;;;13.32;8.82;;;;;;;-0.05;80.81;101243.38;5009032;28;20041;-72
2022/01/24 04:10:58;;;;;;;16.27;8.75;;;;;;;-0.05;80.70;101252.06;5009802;28;20773;-73
2022/01/24 04:16:27;;;;;;;14.77;8.68;;;;;;;-0.03;81.27;101246.88;5008951;28;20121;-72
2022/01/24 04:19:03;;;;;;;18.90;11.30;;;;;;;-0.06;80.30;101250.31;4990608;28;20431;-72
2022/01/24 04:21:33;;;;;;;14.50;8.38;;;;;;;-0.07;81.57;101245.09;5009599;28;20058;-73
2022/01/24 04:24:13;;;;;;;13.25;8.05;;;;;;;-0.03;80.90;101246.88;5008641;28;20033;-73
2022/01/24 04:26:39;;;;;;;10.90;7.45;;;;;;;0.00;80.63;101252.16;4992043;28;20026;-72
2022/01/24 04:29:07;;;;;;;14.38;8.00;;;;;;;-0.03;80.14;101252.06;5009247;28;20638;-73
2022/01/24 04:31:33;;;;;;;32.67;11.38;;;;;;;-0.06;80.42;101252.91;5008959;28;20038;-73
2022/01/24 04:33:58;;;;;;;13.75;9.18;;;;;;;-0.04;80.68;101253.78;5006938;28;20038;-73
2022/01/24 04:36:25;;;;;;;14.32;9.63;;;;;;;-0.01;80.77;101252.97;5008033;28;20144;-74
2022/01/24 04:38:51;;;;;;;16.27;9.75;;;;;;;-0.05;80.56;101249.47;5008887;28;20129;-74
2022/01/24 04:41:23;;;;;;;17.33;10.80;;;;;;;-0.07;80.71;101255.47;5008584;28;20789;-71
2022/01/24 04:56:36;;;;;;;12.90;8.43;;;;;;;-0.11;81.15;101259.72;4996626;28;20034;-73
2022/01/24 04:59:01;;;;;;;19.15;10.15;;;;;;;-0.14;81.30;101270.03;5012929;28;20034;-72
2022/01/24 05:01:26;;;;;;;15.45;9.30;;;;;;;-0.18;81.00;101269.94;5001516;28;20534;-74
2022/01/24 05:03:53;;;;;;;17.15;10.02;;;;;;;-0.20;81.09;101266.44;5010755;28;20101;-69
2022/01/24 05:06:18;;;;;;;13.00;8.20;;;;;;;-0.18;81.26;101267.34;5007989;28;20092;-73
2022/01/24 05:08:43;;;;;;;20.10;11.88;;;;;;;-0.12;80.94;101273.53;5012264;28;20495;-72
2022/01/24 05:11:13;;;;;;;16.73;8.93;;;;;;;-0.14;80.97;101284.72;4994422;28;20112;-72
2022/01/24 05:24:22;;;;;;;15.77;9.02;;;;;;;-0.10;81.51;101268.34;4992052;28;20038;-72
2022/01/24 05:26:47;;;;;;;14.23;9.20;;;;;;;-0.03;81.31;101272.81;4992202;28;20031;-72
2022/01/24 05:29:13;;;;;;;16.60;10.38;;;;;;;0.00;80.56;101278.06;4991911;28;20034;-73
2022/01/24 05:31:39;;;;;;;13.98;9.02;;;;;;;0.02;80.81;101285.84;4992484;28;20069;-72
2022/01/24 05:34:04;;;;;;;16.70;10.73;;;;;;;0.04;81.02;101289.34;4991204;28;20038;-73
2022/01/24 05:36:29;;;;;;;16.13;10.15;;;;;;;0.12;81.19;101285.16;4991267;28;20039;-72
2022/01/24 05:38:56;;;;;;;19.65;11.20;;;;;;;0.20;80.45;101286.19;4990602;28;20745;-73
2022/01/24 05:41:22;;;;;;;17.75;10.68;;;;;;;0.24;80.57;101287.09;4992188;28;20077;-72
2022/01/24 05:43:47;;;;;;;17.67;9.85;;;;;;;0.27;80.65;101281.97;4989700;28;20047;-72
2022/01/24 05:46:12;;;;;;;17.10;9.43;;;;;;;0.31;80.09;101281.19;4990911;28;20030;-72
2022/01/24 05:48:37;;;;;;;18.88;10.38;;;;;;;0.33;80.52;101282.94;4992139;28;20038;-71
2022/01/24 05:51:03;;;;;;;20.67;11.07;;;;;;;0.40;80.06;101289.13;4991348;28;20494;-73
2022/01/24 05:53:28;;;;;;;18.25;9.90;;;;;;;0.45;80.60;101290.06;4991179;28;20038;-72
2022/01/24 05:55:54;;;;;;;16.48;10.43;;;;;;;0.48;80.43;101284.06;4990707;28;20040;-73
2022/01/24 05:58:20;;;;;;;16.67;11.05;;;;;;;0.51;79.98;101284.09;4989727;28;20517;-71
2022/01/24 06:00:46;;;;;;;29.35;13.85;;;;;;;0.49;80.22;101299.63;4989848;28;20034;-72
2022/01/24 06:03:11;;;;;;;17.42;10.48;;;;;;;0.49;80.04;101298.75;4990022;28;20118;-73
2022/01/24 06:05:36;;;;;;;21.13;11.63;;;;;;;0.53;80.25;101292.78;4991531;28;20034;-72
2022/01/24 06:08:02;;;;;;;19.23;12.07;;;;;;;0.53;80.21;101293.66;4990901;28;20070;-72
2022/01/24 06:10:27;;;;;;;16.75;10.77;;;;;;;0.61;80.73;101294.63;4990447;28;20058;-74
2022/01/24 06:12:52;;;;;;;21.88;13.55;;;;;;;0.68;80.35;101289.56;4990897;28;20045;-71
2022/01/24 06:15:18;;;;;;;19.80;12.63;;;;;;;0.70;80.19;101291.31;4989515;28;20037;-71
2022/01/24 06:17:43;;;;;;;16.90;10.98;;;;;;;0.76;80.62;101299.19;4991060;28;20084;-72
2022/01/24 06:20:09;;;;;;;18.67;11.88;;;;;;;0.81;79.89;101307.94;4992860;28;20034;-71
2022/01/24 06:22:36;;;;;;;15.90;9.73;;;;;;;0.83;80.03;101303.63;5009565;28;20120;-74
2022/01/24 06:25:02;;;;;;;19.38;10.65;;;;;;;0.93;79.64;101304.63;5009140;28;20557;-71
2022/01/24 06:27:27;;;;;;;19.75;12.75;;;;;;;0.98;79.30;101304.72;5011307;28;20025;-71
2022/01/24 06:29:53;;;;;;;16.73;9.88;;;;;;;0.96;79.97;101291.72;5011869;28;20071;-71
2022/01/24 06:32:18;;;;;;;18.38;10.57;;;;;;;1.00;79.86;101306.47;5008758;28;20030;-73
2022/01/24 06:34:43;;;;;;;19.30;12.07;;;;;;;1.04;79.67;101303.09;5008822;28;20121;-72
2022/01/24 06:37:09;;;;;;;20.55;12.00;;;;;;;1.01;79.44;101304.75;5009632;28;20037;-73
2022/01/24 06:39:35;;;;;;;17.15;11.75;;;;;;;1.06;79.59;101303.97;5011311;28;20402;-70
2022/01/24 06:42:15;;;;;;;21.23;12.10;;;;;;;1.09;79.66;101299.69;5010073;28;20045;-71
2022/01/24 06:44:42;;;;;;;16.73;10.80;;;;;;;1.13;79.43;101302.31;4991514;28;20038;-71
2022/01/24 06:47:07;;;;;;;18.77;11.95;;;;;;;1.13;79.35;101304.91;5009112;28;20032;-72
2022/01/24 06:49:35;;;;;;;21.23;12.00;;;;;;;1.15;79.75;101297.16;5009673;28;20030;-71
2022/01/24 06:52:00;;;;;;;19.95;12.75;;;;;;;1.18;79.59;101311.06;5008469;28;20060;-71
2022/01/24 06:54:25;;;;;;;19.77;12.57;;;;;;;1.18;79.79;101310.19;5009578;28;20519;-72
2022/01/24 06:56:51;;;;;;;18.83;10.48;;;;;;;1.21;79.68;101305.06;5010037;28;20041;-70
2022/01/24 06:59:16;;;;;;;21.38;12.82;;;;;;;1.21;79.61;101308.50;5008930;28;20034;-72
2022/01/24 07:01:41;;;;;;;20.65;12.30;;;;;;;1.18;79.89;101302.38;5010163;28;20069;-72
2022/01/24 07:04:07;;;;;;;19.48;14.02;;;;;;;1.18;80.04;101299.78;5008602;28;20061;-72
2022/01/24 07:06:32;;;;;;;16.83;10.52;;;;;;;1.22;80.38;101299.00;5016500;28;20034;-70
2022/01/24 07:08:58;;;;;;;22.65;12.50;;;;;;;1.29;79.72;101296.50;5006450;28;20093;-72
2022/01/24 07:11:23;;;;;;;22.50;13.50;;;;;;;1.29;79.99;101296.50;5008990;28;20072;-71
2022/01/24 07:13:50;;;;;;;22.48;13.10;;;;;;;1.31;79.67;101301.72;4995669;28;20038;-72
2022/01/24 07:16:16;;;;;;;19.63;11.40;;;;;;;1.33;79.96;101296.53;4990189;28;20061;-71
2022/01/24 07:19:02;;;;;;;19.63;12.55;;;;;;;1.38;79.87;101306.16;4990522;28;20125;-72
2022/01/24 07:21:27;;;;;;;20.27;13.52;;;;;;;1.43;80.14;101304.47;5009065;28;20037;-72
2022/01/24 07:23:53;;;;;;;23.83;14.07;;;;;;;1.43;79.24;101307.06;5009010;28;20045;-72
2022/01/24 07:26:18;;;;;;;24.33;13.55;;;;;;;1.42;79.48;101307.03;5008816;28;20049;-72
2022/01/24 07:28:44;;;;;;;22.23;12.82;;;;;;;1.42;79.63;101301.84;4976905;28;20058;-70
2022/01/24 07:31:10;;;;;;;22.33;13.70;;;;;;;1.45;79.43;101297.56;4990075;28;20060;-71
2022/01/24 07:33:35;;;;;;;18.73;11.18;;;;;;;1.52;80.26;101300.22;4989377;28;20030;-72
2022/01/24 07:36:01;;;;;;;19.08;12.57;;;;;;;1.56;79.25;101302.91;5004196;28;20085;-71
2022/01/24 07:38:26;;;;;;;25.13;13.90;;;;;;;1.53;79.35;101309.75;4989510;28;20488;-72
2022/01/24 07:40:54;;;;;;;20.83;13.27;;;;;;;1.53;79.45;101304.56;5000304;28;20038;-72
2022/01/24 07:43:20;;;;;;;18.77;12.50;;;;;;;1.57;79.46;101306.34;5009512;28;20038;-72
2022/01/24 07:45:47;;;;;;;25.55;15.38;;;;;;;1.61;79.41;101302.94;5008830;28;20033;-71
2022/01/24 07:48:14;;;;;;;21.98;15.27;;;;;;;1.64;79.36;101316.84;5009130;28;20041;-72
2022/01/24 07:50:44;;;;;;;18.63;12.63;;;;;;;1.68;79.51;101303.03;5009138;28;20092;-72
2022/01/24 07:53:12;;;;;;;18.85;12.48;;;;;;;1.72;79.29;101306.53;4990116;28;20057;-70
2022/01/24 07:55:38;;;;;;;17.42;11.30;;;;;;;1.75;78.97;101310.88;5008173;28;20407;-70
2022/01/24 07:58:03;;;;;;;20.05;11.75;;;;;;;1.80;78.90;101309.25;5007784;28;20041;-71
2022/01/24 08:00:29;;;;;;;20.25;13.68;;;;;;;1.85;78.46;101307.56;5009267;28;20113;-72
2022/01/24 08:02:54;;;;;;;20.63;12.88;;;;;;;1.82;78.41;101307.50;5008970;28;20041;-69
2022/01/24 08:05:20;;;;;;;22.42;13.05;;;;;;;1.80;78.68;101307.50;5007638;28;20093;-71
2022/01/24 08:07:45;;;;;;;23.88;13.57;;;;;;;1.81;78.23;101303.19;5010394;28;20038;-72
2022/01/24 08:10:12;;;;;;;19.08;12.55;;;;;;;1.81;78.85;101301.44;4998805;28;20124;-70
2022/01/24 08:12:39;;;;;;;23.42;13.35;;;;;;;1.84;78.64;101309.28;4989013;28;20484;-70
2022/01/24 08:15:05;;;;;;;18.35;11.65;;;;;;;1.86;78.87;101309.28;4988225;28;20068;-72
2022/01/24 08:17:31;;;;;;;18.40;11.73;;;;;;;1.89;78.83;101310.19;4986633;28;20112;-71
2022/01/24 08:19:57;;;;;;;23.02;13.88;;;;;;;1.95;77.99;101303.34;4989161;28;20500;-71
2022/01/24 08:22:22;;;;;;;18.25;13.18;;;;;;;1.99;79.06;101310.28;5000492;28;20037;-71
2022/01/24 08:24:50;;;;;;;22.13;15.30;;;;;;;2.02;77.84;101307.72;5005503;28;20076;-70
2022/01/24 08:27:18;;;;;;;22.42;14.23;;;;;;;2.05;78.83;101300.84;4981928;28;20071;-71
2022/01/24 08:29:45;;;;;;;17.70;11.93;;;;;;;2.09;77.95;101318.22;4986381;28;20081;-71
2022/01/24 08:32:11;;;;;;;21.67;14.20;;;;;;;2.15;78.26;101301.78;5009360;28;20525;-70
2022/01/24 08:34:37;;;;;;;25.48;14.55;;;;;;;2.15;77.78;101305.25;4998304;28;20034;-72
2022/01/24 08:37:03;;;;;;;23.92;13.80;;;;;;;2.20;77.77;101309.66;4995631;28;20049;-72
2022/01/24 08:39:29;;;;;;;19.38;12.65;;;;;;;2.22;77.64;101313.16;4977161;28;20040;-72
2022/01/24 08:46:48;;;;;;;21.73;13.70;;;;;;;2.30;77.88;101317.53;5003156;28;20037;-73
2022/01/24 08:49:14;;;;;;;20.25;13.73;;;;;;;2.39;77.79;101316.78;5002741;28;20041;-72
2022/01/24 08:51:40;;;;;;;19.63;13.02;;;;;;;2.47;77.63;101316.84;5000708;28;20476;-71
2022/01/24 08:54:08;;;;;;;21.10;13.57;;;;;;;2.52;77.04;101313.41;5005930;28;20037;-70
2022/01/24 08:56:35;;;;;;;23.45;13.73;;;;;;;2.55;76.75;101312.56;4994068;28;20030;-72
2022/01/24 08:59:02;;;;;;;22.52;14.25;;;;;;;2.59;76.74;101322.16;4982947;28;20042;-70
2022/01/24 09:01:28;;;;;;;25.98;15.00;;;;;;;2.63;76.45;101318.69;4986686;28;20035;-72
2022/01/24 09:03:53;;;;;;;19.95;13.10;;;;;;;2.65;76.49;101313.50;4986633;28;20038;-71
2022/01/24 09:06:21;;;;;;;22.38;14.38;;;;;;;2.71;76.63;101324.84;4987663;28;20038;-72
2022/01/24 09:08:48;;;;;;;22.00;14.65;;;;;;;2.75;76.18;101315.31;4986556;28;20038;-72
2022/01/24 09:11:14;;;;;;;17.23;12.18;;;;;;;2.79;76.30;101309.28;4988499;28;20469;-72
2022/01/24 09:13:39;;;;;;;19.20;12.20;;;;;;;2.86;76.56;101308.47;4971033;28;20129;-72
2022/01/24 09:16:05;;;;;;;22.83;14.75;;;;;;;2.95;76.18;101313.75;4994135;28;20093;-72
2022/01/24 09:18:30;;;;;;;23.38;14.55;;;;;;;3.05;75.64;101309.44;5009798;28;20487;-71
2022/01/24 09:20:57;;;;;;;21.35;13.55;;;;;;;3.21;75.39;101310.41;5008510;28;20126;-71
2022/01/24 09:23:22;;;;;;;23.85;14.55;;;;;;;4.06;73.65;101306.34;5008824;28;20061;-71
2022/01/24 09:25:50;;;;;;;22.38;13.27;;;;;;;5.11;70.34;101297.63;4996881;28;20057;-71
2022/01/24 09:28:16;;;;;;;19.92;14.13;;;;;;;6.04;66.02;101300.78;4990807;28;20082;-71
2022/01/24 09:30:42;;;;;;;21.65;15.40;;;;;;;7.15;61.07;101292.84;4999232;28;20038;-72
2022/01/24 09:33:11;;;;;;;22.85;16.23;;;;;;;7.78;58.91;101299.94;4976818;28;20026;-72
2022/01/24 09:35:37;;;;;;;20.05;15.40;;;;;;;8.41;57.18;101291.16;5005481;28;20034;-71
2022/01/24 09:38:03;;;;;;;25.13;18.65;;;;;;;9.06;53.66;101285.66;5006943;28;20096;-71
2022/01/24 09:40:28;;;;;;;23.92;17.00;;;;;;;9.26;52.50;101279.16;5007465;28;20104;-70
2022/01/24 09:42:53;;;;;;;21.05;15.20;;;;;;;9.71;51.74;101284.34;5008611;28;20141;-71
2022/01/24 09:45:19;;;;;;;20.15;15.80;;;;;;;10.00;50.36;101279.31;5010304;28;20037;-71
2022/01/24 09:47:45;;;;;;;20.35;14.90;;;;;;;10.27;50.16;101284.84;5011275;28;20048;-70
2022/01/24 09:50:13;;;;;;;19.45;15.43;;;;;;;10.56;48.60;101280.63;4979222;28;20089;-71
2022/01/24 09:52:40;;;;;;;17.42;13.68;;;;;;;10.87;47.58;101273.66;5009893;28;20029;-70
2022/01/24 09:55:07;;;;;;;19.20;13.90;;;;;;;10.99;47.17;101276.91;5010147;28;20503;-70
2022/01/24 09:57:33;;;;;;;17.88;13.85;;;;;;;11.25;46.69;101277.06;5010512;28;20555;-71
2022/01/24 09:59:58;;;;;;;17.42;13.52;;;;;;;11.55;45.51;101277.94;5010687;28;20040;-71
2022/01/24 10:02:25;;;;;;;18.25;14.38;;;;;;;11.80;45.61;101267.50;5011609;28;20033;-70
2022/01/24 10:04:51;;;;;;;16.90;13.40;;;;;;;11.99;44.88;101277.56;5002403;28;20037;-71
2022/01/24 10:07:17;;;;;;;19.08;13.88;;;;;;;11.96;44.54;101278.53;5010792;28;20037;-71
2022/01/24 10:09:43;;;;;;;16.60;13.52;;;;;;;12.16;45.08;101275.25;4993534;28;20042;-71
2022/01/24 10:12:17;;;;;;;16.73;12.85;;;;;;;12.48;43.37;101272.44;5010773;28;20061;-71
2022/01/24 10:17:31;;;;;;;22.45;15.85;;;;;;;11.99;43.74;101281.06;5010701;28;20049;-70
2022/01/24 10:19:56;;;;;;;22.25;14.88;;;;;;;11.75;44.52;101274.72;5010992;28;20044;-74
2022/01/24 10:22:24;;;;;;;20.15;14.48;;;;;;;11.98;44.35;101267.88;5011181;28;20033;-72
2022/01/24 10:24:54;;;;;;;20.38;14.40;;;;;;;12.18;44.47;101276.06;5010190;28;20034;-71
2022/01/24 10:27:28;;;;;;;18.27;14.18;;;;;;;12.36;43.36;101277.25;5010764;28;20038;-71
2022/01/24 10:30:15;;;;;;;20.17;15.48;;;;;;;12.38;43.03;101282.47;5010854;28;20029;-72
2022/01/24 10:32:49;;;;;;;17.10;14.48;;;;;;;11.57;44.26;101276.13;5010039;28;20034;-71
2022/01/24 10:35:30;;;;;;;20.88;14.85;;;;;;;10.96;45.64;101284.00;5009715;28;20152;-71
2022/01/24 10:38:54;;;;;;;15.60;12.57;;;;;;;10.22;47.71;101278.81;5010719;28;20048;-72
2022/01/24 10:41:17;;;;;;;20.50;14.65;;;;;;;9.53;49.27;101283.84;5009873;28;20037;-70
2022/01/24 10:43:44;;;;;;;25.92;15.80;;;;;;;9.12;50.84;101282.03;5010114;28;20042;-71
2022/01/24 10:46:10;;;;;;;18.17;12.77;;;;;;;9.16;51.11;101281.09;5009586;28;20087;-69
2022/01/24 10:48:39;;;;;;;16.08;12.10;;;;;;;9.22;50.93;101280.97;5010577;28;20509;-70
2022/01/24 10:51:17;;;;;;;18.55;13.80;;;;;;;9.10;51.37;101278.56;5009867;28;20036;-71
2022/01/24 10:53:55;;;;;;;17.02;13.15;;;;;;;8.73;52.28;101281.88;5009959;28;20129;-71
2022/01/24 10:56:28;;;;;;;22.58;12.80;;;;;;;8.18;54.02;101288.88;5009525;28;20061;-70
2022/01/24 10:59:00;;;;;;;20.63;15.52;;;;;;;7.77;55.44;101287.69;5010212;28;20038;-70
2022/01/24 11:01:27;;;;;;;20.80;15.23;;;;;;;7.65;55.72;101287.84;5010118;28;20041;-70
2022/01/24 11:04:00;;;;;;;19.58;13.68;;;;;;;7.34;56.40;101285.63;5010070;28;20061;-70
2022/01/24 11:06:32;;;;;;;19.45;13.98;;;;;;;7.08;57.42;101280.66;5009800;28;20423;-69
2022/01/24 11:09:23;;;;;;;22.23;16.40;;;;;;;6.86;58.54;101280.88;4996562;28;20061;-71
2022/01/24 11:12:01;;;;;;;22.95;16.13;;;;;;;6.63;59.51;101273.25;4990293;28;20034;-71
2022/01/24 11:14:29;;;;;;;18.92;13.88;;;;;;;6.40;60.10;101280.44;4989470;28;20042;-71
2022/01/24 11:16:58;;;;;;;18.58;13.43;;;;;;;6.42;59.98;101274.31;5004225;28;20058;-71
2022/01/24 11:19:35;;;;;;;19.42;12.45;;;;;;;6.56;59.60;101274.19;5010116;28;20030;-71
2022/01/24 11:22:05;;;;;;;20.17;14.32;;;;;;;6.54;59.94;101268.06;5010048;28;20157;-72
2022/01/24 11:24:39;;;;;;;25.33;16.38;;;;;;;6.39;60.44;101269.06;5009642;28;20041;-71
2022/01/24 11:27:07;;;;;;;21.83;15.23;;;;;;;6.28;61.05;101268.31;5009509;28;20491;-70
2022/01/24 11:29:34;;;;;;;19.65;13.68;;;;;;;6.19;61.15;101264.00;5010232;28;20048;-72
2022/01/24 11:32:06;;;;;;;20.73;14.50;;;;;;;6.20;61.52;101263.13;5008404;28;20033;-71
2022/01/24 11:34:37;;;;;;;24.73;17.52;;;;;;;6.06;62.35;101259.75;5007208;28;20109;-70
2022/01/24 11:37:05;;;;;;;21.30;14.80;;;;;;;5.96;62.26;101256.31;5009399;28;20058;-72
2022/01/24 11:39:30;;;;;;;24.40;15.15;;;;;;;5.90;62.72;101251.06;5009239;28;20858;-72
2022/01/24 11:41:56;;;;;;;22.38;16.33;;;;;;;5.97;62.54;101244.97;5010296;28;20080;-71
2022/01/24 11:44:22;;;;;;;21.73;15.07;;;;;;;6.09;64.01;101249.25;5008221;28;20369;-71
2022/01/24 11:46:55;;;;;;;23.13;14.50;;;;;;;6.12;62.81;101238.75;5009029;28;20400;-70
2022/01/24 11:49:31;;;;;;;25.75;15.82;;;;;;;6.15;63.71;101233.50;5009215;28;20030;-71
2022/01/24 11:52:13;;;;;;;22.38;14.07;;;;;;;6.27;63.68;101227.28;5010450;28;20057;-72
2022/01/24 11:54:47;;;;;;;24.73;15.75;;;;;;;6.36;63.06;101234.19;5009742;28;20030;-72
2022/01/24 11:57:22;;;;;;;21.33;12.15;;;;;;;6.04;62.58;101226.59;5009603;28;20041;-72
2022/01/24 11:59:49;;;;;;;20.42;12.98;;;;;;;6.10;62.47;101230.03;5008328;28;20042;-71
2022/01/24 12:02:22;;;;;;;20.88;12.70;;;;;;;6.13;62.16;101222.16;5008477;28;20044;-72
2022/01/24 12:05:08;;;;;;;24.15;13.85;;;;;;;6.12;62.36;101216.94;5008714;28;20120;-71
2022/01/24 12:07:50;;;;;;;21.80;12.85;;;;;;;6.11;62.68;101217.81;5008079;28;20040;-71
2022/01/24 12:10:38;;;;;;;22.85;13.40;;;;;;;6.13;62.75;101213.41;5008955;28;20091;-72
2022/01/24 12:13:13;;;;;;;23.73;10.88;;;;;;;6.17;62.39;101215.16;5001757;28;20495;-72
2022/01/24 12:15:38;;;;;;;20.95;12.85;;;;;;;6.22;62.14;101214.22;5007250;28;20041;-72
2022/01/24 12:18:20;;;;;;;15.25;10.50;;;;;;;6.24;62.35;101212.44;5008770;28;20766;-72
2022/01/24 12:20:46;;;;;;;17.20;11.65;;;;;;;6.10;62.60;101214.31;5023827;28;20053;-72
2022/01/24 12:23:27;;;;;;;20.88;12.18;;;;;;;6.13;62.40;101210.81;5008731;28;20071;-71
2022/01/24 12:26:11;;;;;;;15.30;10.10;;;;;;;6.19;62.67;101209.00;5008212;28;20034;-72
2022/01/24 12:28:43;;;;;;;19.58;12.68;;;;;;;6.18;62.71;101206.44;5008920;28;20391;-73
2022/01/24 12:31:32;;;;;;;22.33;12.75;;;;;;;6.01;63.15;101201.31;5008488;28;20038;-72
2022/01/24 12:34:10;;;;;;;15.73;11.65;;;;;;;6.06;62.74;101202.16;5020539;28;20044;-72
2022/01/24 12:36:47;;;;;;;18.13;11.98;;;;;;;6.14;62.95;101195.09;5009572;28;20076;-72
2022/01/24 12:39:48;;;;;;;18.88;10.07;;;;;;;6.18;62.61;101195.94;5003803;28;20057;-71
2022/01/24 12:42:29;;;;;;;17.50;13.13;;;;;;;6.20;62.49;101192.44;5003425;28;20045;-72
2022/01/24 12:47:38;;;;;;;15.70;10.98;;;;;;;6.22;62.62;101185.41;5004732;28;20091;-73
2022/01/24 12:50:06;;;;;;;18.65;13.00;;;;;;;6.26;63.09;101175.78;5002875;28;20029;-73
2022/01/24 12:52:32;;;;;;;15.10;10.23;;;;;;;6.34;62.66;101183.56;5003234;28;20088;-72
2022/01/24 12:54:59;;;;;;;16.05;10.32;;;;;;;6.41;62.02;101183.50;5002795;28;20144;-72
2022/01/24 12:57:37;;;;;;;14.80;10.10;;;;;;;6.45;61.76;101176.50;5004383;28;20045;-73
2022/01/24 13:00:16;;;;;;;13.30;9.80;;;;;;;6.45;61.92;101182.59;5022933;28;20037;-73
2022/01/24 13:02:42;;;;;;;15.07;10.77;;;;;;;6.50;62.36;101176.41;5000538;28;20038;-71
2022/01/24 13:05:16;;;;;;;16.27;10.30;;;;;;;6.44;62.16;101186.09;4963563;28;20097;-71
2022/01/24 13:07:50;;;;;;;15.85;10.80;;;;;;;6.44;62.38;101182.59;4963393;28;20701;-71
2022/01/24 13:10:18;;;;;;;19.70;11.05;;;;;;;6.45;62.31;101177.34;4973016;28;20089;-73
2022/01/24 13:12:44;;;;;;;16.60;9.85;;;;;;;6.44;62.43;101170.38;4983574;28;20089;-72
2022/01/24 13:20:22;;;;;;;16.27;10.55;;;;;;;6.52;62.32;101165.06;4982353;28;20066;-72